createdAt,value
2022-11-23T00:02:02.423Z,95498.03
2022-11-23T00:04:29.009Z,95512.72
2022-11-23T00:06:55.362Z,95541.75
2022-11-23T00:09:21.861Z,95515.53
2022-11-23T00:11:48.226Z,95544.34
2022-11-23T00:14:14.670Z,95505.38
2022-11-23T00:16:41.051Z,95535.78
2022-11-23T00:19:08.973Z,95521.88
2022-11-23T00:21:35.471Z,95537.53
2022-11-23T00:24:01.899Z,95540.41
2022-11-23T00:26:28.563Z,95539.47
2022-11-23T00:28:55.230Z,95508.97
2022-11-23T00:31:26.512Z,95516.19
2022-11-23T00:33:53.753Z,95553.81
2022-11-23T00:36:21.624Z,95510.66
2022-11-23T00:38:49.106Z,95546.13
2022-11-23T00:41:18.485Z,95545.69
2022-11-23T00:43:45.475Z,95548.72
2022-11-23T00:46:18.220Z,95552.88
2022-11-23T00:48:46.658Z,95518.50
2022-11-23T00:51:15.819Z,95546.91
2022-11-23T00:53:42.958Z,95492.09
2022-11-23T00:56:10.793Z,95485.22
2022-11-23T00:58:40.186Z,95511.38
2022-11-23T01:01:15.510Z,95548.78
2022-11-23T01:03:45.196Z,95548.00
2022-11-23T01:06:14.383Z,95531.25
2022-11-23T01:08:41.439Z,95551.69
2022-11-23T01:11:11.156Z,95564.28
2022-11-23T01:13:39.669Z,95538.41
2022-11-23T01:16:23.617Z,95558.19
2022-11-23T01:18:55.523Z,95530.56
2022-11-23T01:21:24.853Z,95543.72
2022-11-23T01:23:51.445Z,95518.09
2022-11-23T01:26:17.999Z,95556.38
2022-11-23T01:28:44.811Z,95554.03
2022-11-23T01:31:14.637Z,95550.06
2022-11-23T01:33:44.427Z,95533.81
2022-11-23T01:36:12.094Z,95551.34
2022-11-23T01:38:39.184Z,95528.25
2022-11-23T01:41:07.226Z,95543.09
2022-11-23T01:43:34.099Z,95546.53
2022-11-23T01:46:02.554Z,95556.66
2022-11-23T01:48:51.636Z,95566.25
2022-11-23T01:51:22.474Z,95564.28
2022-11-23T01:53:52.165Z,95569.88
2022-11-23T01:56:25.510Z,95539.78
2022-11-23T01:58:54.395Z,95576.09
2022-11-23T02:01:20.905Z,95556.06
2022-11-23T02:03:49.145Z,95579.31
2022-11-23T02:06:18.745Z,95573.75
2022-11-23T02:08:47.261Z,95581.88
2022-11-23T02:11:15.750Z,95570.03
2022-11-23T02:13:44.846Z,95552.97
2022-11-23T02:16:11.677Z,95561.44
2022-11-23T02:18:42.951Z,95545.63
2022-11-23T02:21:10.798Z,95588.38
2022-11-23T02:23:59.708Z,95583.78
2022-11-23T02:26:29.643Z,95539.78
2022-11-23T02:29:02.560Z,95582.94
2022-11-23T02:31:31.045Z,95577.59
2022-11-23T02:33:57.739Z,95546.75
2022-11-23T02:36:43.521Z,95588.25
2022-11-23T02:39:22.114Z,95588.69
2022-11-23T02:41:53.024Z,95590.66
2022-11-23T02:44:42.192Z,95591.06
2022-11-23T02:47:09.455Z,95596.88
2022-11-23T02:49:35.983Z,95593.72
2022-11-23T02:52:03.757Z,95563.47
2022-11-23T02:54:30.235Z,95571.50
2022-11-23T02:56:57.591Z,95560.66
2022-11-23T02:59:24.054Z,95592.41
2022-11-23T03:01:53.428Z,95597.38
2022-11-23T03:04:25.917Z,95524.13
2022-11-23T03:06:54.098Z,95606.91
2022-11-23T03:09:20.520Z,95598.91
2022-11-23T03:11:46.916Z,95598.69
2022-11-23T03:14:13.977Z,95589.56
2022-11-23T03:16:49.318Z,95602.25
2022-11-23T03:19:17.868Z,95534.38
2022-11-23T03:21:44.552Z,95548.22
2022-11-23T03:24:11.067Z,95569.59
2022-11-23T03:26:37.653Z,95586.22
2022-11-23T03:29:09.906Z,95565.22
2022-11-23T03:31:38.885Z,95573.69
2022-11-23T03:34:10.011Z,95589.66
2022-11-23T03:36:37.057Z,95573.97
2022-11-23T03:39:04.059Z,95583.88
2022-11-23T03:41:53.027Z,95524.84
2022-11-23T03:44:22.076Z,95582.41
2022-11-23T03:46:50.384Z,95599.47
2022-11-23T03:49:17.241Z,95568.09
2022-11-23T03:51:43.741Z,95577.59
2022-11-23T03:54:10.215Z,95578.19
2022-11-23T03:56:37.835Z,95568.84
2022-11-23T03:59:04.455Z,95527.84
2022-11-23T04:01:31.193Z,95521.91
2022-11-23T04:04:02.243Z,95567.44
2022-11-23T04:06:47.121Z,95568.66
2022-11-23T04:09:39.670Z,95552.00
2022-11-23T04:12:06.904Z,95563.81
2022-11-23T04:14:36.402Z,95564.38
2022-11-23T04:17:03.101Z,95558.19
2022-11-23T04:19:30.899Z,95514.34
2022-11-23T04:21:58.051Z,95567.41
2022-11-23T04:24:26.419Z,95562.63
2022-11-23T04:26:54.896Z,95524.94
2022-11-23T04:29:21.402Z,95556.09
2022-11-23T04:31:52.418Z,95517.44
2022-11-23T04:34:20.043Z,95568.13
2022-11-23T04:36:48.788Z,95561.06
2022-11-23T04:39:15.630Z,95543.31
2022-11-23T04:42:05.018Z,95548.13
2022-11-23T04:44:32.706Z,95503.13
2022-11-23T04:47:03.331Z,95523.97
2022-11-23T04:49:31.852Z,95533.63
2022-11-23T04:51:58.695Z,95542.91
2022-11-23T04:54:32.161Z,95533.03
2022-11-23T04:57:01.343Z,95494.75
2022-11-23T04:59:28.240Z,95539.31
2022-11-23T05:01:54.999Z,95555.53
2022-11-23T05:04:38.949Z,95572.91
2022-11-23T05:07:05.900Z,95546.50
2022-11-23T05:09:34.838Z,95562.16
2022-11-23T05:12:21.799Z,95564.16
2022-11-23T05:14:48.187Z,95562.72
2022-11-23T05:17:20.182Z,95542.44
2022-11-23T05:19:47.938Z,95539.50
2022-11-23T05:22:14.439Z,95531.22
2022-11-23T05:24:42.524Z,95559.72
2022-11-23T05:27:13.867Z,95543.50
2022-11-23T05:29:40.336Z,95566.59
2022-11-23T05:32:07.684Z,95539.84
2022-11-23T05:34:34.295Z,95530.13
2022-11-23T05:37:02.734Z,95555.66
2022-11-23T05:39:29.462Z,95502.94
2022-11-23T05:41:57.059Z,95551.41
2022-11-23T05:44:37.508Z,95549.06
2022-11-23T05:47:06.023Z,95531.06
2022-11-23T05:49:34.719Z,95539.06
2022-11-23T05:52:03.927Z,95544.44
2022-11-23T05:54:31.628Z,95575.56
2022-11-23T05:57:11.262Z,95577.38
2022-11-23T05:59:40.087Z,95539.78
2022-11-23T06:02:08.517Z,95527.53
2022-11-23T06:04:35.800Z,95567.31
2022-11-23T06:07:03.002Z,95557.47
2022-11-23T06:09:38.060Z,95556.66
2022-11-23T06:12:08.093Z,95561.09
2022-11-23T06:14:34.926Z,95557.34
2022-11-23T06:17:01.475Z,95559.56
2022-11-23T06:19:35.978Z,95555.38
2022-11-23T06:22:03.624Z,95547.69
2022-11-23T06:24:34.009Z,95552.44
2022-11-23T06:27:18.994Z,95569.06
2022-11-23T06:29:47.917Z,95509.81
2022-11-23T06:32:15.756Z,95521.69
2022-11-23T06:34:42.616Z,95581.16
2022-11-23T06:37:09.319Z,95559.78
2022-11-23T06:39:36.064Z,95552.22
2022-11-23T06:42:30.887Z,95558.84
2022-11-23T06:44:51.719Z,95576.00
2022-11-23T06:47:21.943Z,95598.66
2022-11-23T06:49:52.095Z,95587.50
2022-11-23T06:52:25.995Z,95561.56
2022-11-23T06:54:52.960Z,95599.97
2022-11-23T06:57:19.492Z,95578.94
2022-11-23T06:59:46.795Z,95569.44
2022-11-23T07:02:14.870Z,95613.22
2022-11-23T07:04:41.920Z,95591.97
2022-11-23T07:07:15.290Z,95574.53
2022-11-23T07:09:49.062Z,95584.56
2022-11-23T07:12:22.709Z,95597.94
2022-11-23T07:14:49.202Z,95586.06
2022-11-23T07:17:17.555Z,95608.13
2022-11-23T07:19:44.628Z,95599.19
2022-11-23T07:22:11.044Z,95632.03
2022-11-23T07:24:43.903Z,95639.03
2022-11-23T07:27:13.065Z,95613.81
2022-11-23T07:29:39.574Z,95595.50
2022-11-23T07:32:07.111Z,95638.47
2022-11-23T07:34:33.573Z,95630.03
2022-11-23T07:37:02.179Z,95630.97
2022-11-23T07:39:49.194Z,95614.22
2022-11-23T07:42:32.363Z,95634.50
2022-11-23T07:45:00.390Z,95645.97
2022-11-23T07:47:26.738Z,95645.81
2022-11-23T07:49:53.174Z,95644.97
2022-11-23T07:52:19.680Z,95642.75
2022-11-23T07:54:46.325Z,95642.75
2022-11-23T07:57:12.771Z,95625.50
2022-11-23T07:59:39.691Z,95651.66
2022-11-23T08:02:06.769Z,95647.03
2022-11-23T08:04:33.508Z,95654.03
2022-11-23T08:07:02.434Z,95628.19
2022-11-23T08:09:28.860Z,95625.66
2022-11-23T08:11:55.324Z,95649.50
2022-11-23T08:14:21.916Z,95632.56
2022-11-23T08:16:50.298Z,95602.97
2022-11-23T08:19:17.683Z,95613.16
2022-11-23T08:21:45.933Z,95651.88
2022-11-23T08:24:12.540Z,95634.06
2022-11-23T08:26:39.036Z,95624.13
2022-11-23T08:29:05.724Z,95648.75
2022-11-23T08:31:32.431Z,95625.97
2022-11-23T08:34:03.227Z,95628.41
2022-11-23T08:36:30.295Z,95637.59
2022-11-23T08:38:56.669Z,95655.31
2022-11-23T08:41:23.436Z,95653.53
2022-11-23T08:43:51.104Z,95649.03
2022-11-23T08:46:17.706Z,95643.09
2022-11-23T08:48:44.214Z,95624.91
2022-11-23T08:51:11.109Z,95647.78
2022-11-23T08:53:38.001Z,95619.91
2022-11-23T08:56:06.237Z,95614.84
2022-11-23T08:58:33.347Z,95613.00
2022-11-23T09:00:59.808Z,95610.84
2022-11-23T09:03:26.179Z,95647.47
2022-11-23T09:05:54.235Z,95625.13
2022-11-23T09:08:20.663Z,95653.41
2022-11-23T09:10:47.033Z,95649.53
2022-11-23T09:13:13.494Z,95629.44
2022-11-23T09:15:39.983Z,95641.66
2022-11-23T09:18:06.477Z,95611.78
2022-11-23T09:20:32.995Z,95644.50
2022-11-23T09:22:59.346Z,95642.59
2022-11-23T09:25:25.882Z,95608.59
2022-11-23T09:27:59.751Z,95642.34
2022-11-23T09:30:27.412Z,95627.75
2022-11-23T09:32:56.864Z,95613.44
2022-11-23T09:35:23.778Z,95612.38
2022-11-23T09:37:56.082Z,95617.72
2022-11-23T09:40:22.833Z,95645.72
2022-11-23T09:42:59.695Z,95626.34
2022-11-23T09:45:50.069Z,95645.81
2022-11-23T09:48:28.681Z,95644.78
2022-11-23T09:51:14.201Z,95636.84
2022-11-23T09:53:54.136Z,95630.09
2022-11-23T09:56:25.477Z,95627.34
2022-11-23T09:58:55.659Z,95630.56
2022-11-23T10:01:22.498Z,95614.75
2022-11-23T10:03:49.593Z,95601.31
2022-11-23T10:06:31.378Z,95622.34
2022-11-23T10:09:19.758Z,95621.84
2022-11-23T10:12:27.478Z,95616.81
2022-11-23T10:15:03.825Z,95559.16
2022-11-23T10:17:58.116Z,95603.25
2022-11-23T10:20:30.529Z,95611.44
2022-11-23T10:23:09.086Z,95606.22
2022-11-23T10:25:46.376Z,95606.22
2022-11-23T10:28:16.465Z,95570.22
2022-11-23T10:30:44.967Z,95584.13
2022-11-23T10:33:26.505Z,95599.28
2022-11-23T10:35:52.976Z,95591.53
2022-11-23T10:38:20.118Z,95602.44
2022-11-23T10:41:02.456Z,95565.41
2022-11-23T10:43:55.546Z,95579.88
2022-11-23T10:46:37.017Z,95577.94
2022-11-23T10:49:14.030Z,95569.09
2022-11-23T10:51:40.605Z,95594.19
2022-11-23T10:54:21.242Z,95561.09
2022-11-23T10:56:49.286Z,95577.81
2022-11-23T10:59:38.120Z,95576.69
2022-11-23T11:02:17.768Z,95587.44
2022-11-23T11:04:45.527Z,95568.97
2022-11-23T11:07:29.257Z,95580.63
2022-11-23T11:09:57.383Z,95567.78
2022-11-23T11:12:24.335Z,95544.38
2022-11-23T11:15:14.405Z,95568.97
2022-11-23T11:33:24.751Z,95557.81
2022-11-23T11:35:53.615Z,95568.56
2022-11-23T11:38:32.454Z,95569.09
2022-11-23T11:41:24.734Z,95550.59
2022-11-23T11:44:09.603Z,95578.56
2022-11-23T11:46:45.259Z,95568.16
2022-11-23T11:49:21.900Z,95568.16
2022-11-23T11:52:09.417Z,95556.22
2022-11-23T11:54:44.019Z,95564.81
2022-11-23T11:57:19.582Z,95548.94
2022-11-23T11:59:49.977Z,95531.50
2022-11-23T12:02:24.481Z,95525.09
2022-11-23T12:04:59.274Z,95552.91
2022-11-23T12:07:33.779Z,95550.84
2022-11-23T12:10:06.663Z,95548.66
2022-11-23T12:12:36.230Z,95524.72
2022-11-23T12:15:15.256Z,95527.31
2022-11-23T12:18:19.937Z,95534.34
2022-11-23T12:21:21.335Z,95535.53
2022-11-23T12:23:57.242Z,95519.50
2022-11-23T12:26:35.178Z,95527.84
2022-11-23T12:29:08.274Z,95541.97
2022-11-23T12:31:46.291Z,95536.09
2022-11-23T12:34:21.805Z,95537.88
2022-11-23T12:37:07.859Z,95525.19
2022-11-23T12:40:13.703Z,95524.28
2022-11-23T12:43:14.393Z,95523.06
2022-11-23T12:45:49.814Z,95540.13
2022-11-23T12:48:40.600Z,95514.34
2022-11-23T12:51:34.438Z,95543.66
2022-11-23T12:54:19.825Z,95539.78
2022-11-23T12:57:06.751Z,95524.19
2022-11-23T12:59:44.851Z,95538.94
2022-11-23T13:02:53.354Z,95535.53
2022-11-23T13:05:28.682Z,95528.41
2022-11-23T13:08:39.894Z,95522.59
2022-11-23T13:11:39.654Z,95514.19
2022-11-23T13:14:09.273Z,95531.63
2022-11-23T13:17:12.429Z,95518.41
2022-11-23T13:20:14.189Z,95522.13
2022-11-23T13:22:45.562Z,95492.09
2022-11-23T13:25:11.947Z,95522.38
2022-11-23T13:27:49.040Z,95498.34
2022-11-23T13:30:18.420Z,95521.94
2022-11-23T13:32:51.797Z,95505.16
2022-11-23T13:35:21.367Z,95531.91
2022-11-23T13:37:56.671Z,95532.75
2022-11-23T13:40:32.280Z,95512.25
2022-11-23T13:43:19.374Z,95516.16
2022-11-23T13:46:05.916Z,95509.44
2022-11-23T13:48:56.281Z,95519.50
2022-11-23T13:51:27.059Z,95491.25
2022-11-23T13:54:03.458Z,95487.06
2022-11-23T13:56:42.232Z,95500.25
2022-11-23T13:59:24.226Z,95509.25
2022-11-23T14:02:09.125Z,95504.03
2022-11-23T14:04:43.583Z,95501.38
2022-11-23T14:07:19.265Z,95501.75
2022-11-23T14:09:52.188Z,95495.84
2022-11-23T14:12:46.232Z,95500.72
2022-11-23T14:15:19.745Z,95463.88
2022-11-23T14:17:58.179Z,95501.78
2022-11-23T14:20:52.487Z,95508.00
2022-11-23T14:23:45.626Z,95467.34
2022-11-23T14:26:26.979Z,95507.28
2022-11-23T14:28:56.181Z,95501.84
2022-11-23T14:31:43.570Z,95499.25
2022-11-23T14:34:32.543Z,95502.09
2022-11-23T14:37:13.903Z,95503.06
2022-11-23T14:40:00.987Z,95503.34
2022-11-23T14:42:29.866Z,95502.31
2022-11-23T14:45:00.956Z,95482.75
2022-11-23T14:47:30.582Z,95481.78
2022-11-23T14:49:57.759Z,95454.16
2022-11-23T14:52:36.347Z,95475.53
2022-11-23T14:55:05.672Z,95475.91
2022-11-23T14:57:45.268Z,95492.44
2022-11-23T15:00:35.522Z,95503.31
2022-11-23T15:03:42.101Z,95513.22
2022-11-23T15:06:12.795Z,95506.97
2022-11-23T15:08:51.739Z,95481.03
2022-11-23T15:11:22.060Z,95512.88
2022-11-23T15:13:50.609Z,95511.22
2022-11-23T15:16:19.679Z,95513.22
2022-11-23T15:18:49.117Z,95486.19
2022-11-23T15:21:27.543Z,95511.63
2022-11-23T15:23:57.279Z,95482.94
2022-11-23T15:26:47.483Z,95489.16
2022-11-23T15:29:33.677Z,95494.16
2022-11-23T15:34:49.644Z,95466.72
2022-11-23T15:37:17.454Z,95503.28
2022-11-23T15:39:44.214Z,95466.47
2022-11-23T15:42:19.317Z,95478.22
2022-11-23T15:47:32.930Z,95477.41
2022-11-23T15:50:03.131Z,95494.34
2022-11-23T15:52:35.417Z,95474.50
2022-11-23T15:54:53.469Z,95506.78
2022-11-23T15:55:09.633Z,95454.88
2022-11-23T15:57:37.913Z,95483.66
2022-11-23T16:00:06.099Z,95510.19
2022-11-23T16:02:38.929Z,95479.44
2022-11-23T16:05:14.094Z,95503.16
2022-11-23T16:07:58.024Z,95487.59
2022-11-23T16:10:27.510Z,95487.47
2022-11-23T16:13:01.400Z,95500.78
2022-11-23T16:15:34.140Z,95492.97
2022-11-23T16:18:02.309Z,95500.28
2022-11-23T16:20:29.809Z,95482.09
2022-11-23T16:22:57.435Z,95499.63
2022-11-23T16:25:36.072Z,95506.03
2022-11-23T16:28:05.453Z,95473.75
2022-11-23T16:30:41.496Z,95508.69
2022-11-23T16:33:19.276Z,95502.81
2022-11-23T16:35:49.613Z,95510.59
2022-11-23T16:38:16.120Z,95501.88
2022-11-23T16:40:43.285Z,95506.03
2022-11-23T16:43:13.137Z,95480.59
2022-11-23T16:45:43.032Z,95502.59
2022-11-23T16:48:25.255Z,95504.16
2022-11-23T16:50:53.269Z,95508.56
2022-11-23T16:53:20.770Z,95514.53
2022-11-23T16:55:54.373Z,95498.50
2022-11-23T16:58:21.401Z,95488.38
2022-11-23T17:00:49.228Z,95494.06
2022-11-23T17:03:17.444Z,95526.00
2022-11-23T17:05:44.227Z,95472.28
2022-11-23T17:08:10.682Z,95508.97
2022-11-23T17:10:38.038Z,95527.25
2022-11-23T17:13:11.460Z,95504.25
2022-11-23T17:15:38.535Z,95535.09
2022-11-23T17:18:05.112Z,95501.72
2022-11-23T17:20:31.559Z,95502.94
2022-11-23T17:23:01.093Z,95539.19
2022-11-23T17:25:27.724Z,95497.59
2022-11-23T17:27:54.182Z,95497.59
2022-11-23T17:30:23.231Z,95535.16
2022-11-23T17:32:50.099Z,95531.88
2022-11-23T17:35:17.244Z,95524.16
2022-11-23T17:37:44.016Z,95530.75
2022-11-23T17:40:19.090Z,95517.16
2022-11-23T17:42:45.895Z,95552.22
2022-11-23T17:45:13.029Z,95557.41
2022-11-23T17:47:42.459Z,95540.69
2022-11-23T17:50:17.397Z,95559.25
2022-11-23T17:52:47.806Z,95561.13
2022-11-23T17:55:15.128Z,95565.78
2022-11-23T17:57:42.190Z,95565.63
2022-11-23T18:00:20.396Z,95554.19
2022-11-23T18:02:46.943Z,95569.88
2022-11-23T18:05:19.483Z,95569.91
2022-11-23T18:07:48.714Z,95567.22
2022-11-23T18:10:15.716Z,95546.81
2022-11-23T18:12:44.420Z,95549.09
2022-11-23T18:15:10.973Z,95544.91
2022-11-23T18:17:37.568Z,95583.22
2022-11-23T18:20:04.947Z,95578.91
2022-11-23T18:22:31.378Z,95562.56
2022-11-23T18:24:57.738Z,95589.13
2022-11-23T18:27:24.229Z,95586.00
2022-11-23T18:29:50.810Z,95596.16
2022-11-23T18:32:17.390Z,95589.25
2022-11-23T18:34:43.934Z,95597.81
2022-11-23T18:37:10.640Z,95604.19
2022-11-23T18:39:37.136Z,95605.19
2022-11-23T18:42:05.959Z,95615.31
2022-11-23T18:44:32.646Z,95589.75
2022-11-23T18:46:59.115Z,95616.09
2022-11-23T18:49:25.623Z,95585.25
2022-11-23T18:51:52.078Z,95618.22
2022-11-23T18:54:18.544Z,95607.75
2022-11-23T18:56:45.000Z,95624.78
2022-11-23T18:59:28.781Z,95640.13
2022-11-23T19:01:58.005Z,95606.81
2022-11-23T19:04:24.498Z,95634.56
2022-11-23T19:06:50.889Z,95638.09
2022-11-23T19:09:17.335Z,95636.38
2022-11-23T19:11:43.766Z,95639.31
2022-11-23T19:14:10.495Z,95664.31
2022-11-23T19:16:36.962Z,95640.47
2022-11-23T19:19:04.631Z,95659.84
2022-11-23T19:21:32.682Z,95665.38
2022-11-23T19:24:00.271Z,95645.50
2022-11-23T19:26:28.545Z,95662.47
2022-11-23T19:28:56.096Z,95658.63
2022-11-23T19:31:23.872Z,95673.91
2022-11-23T19:33:52.473Z,95680.81
2022-11-23T19:36:21.691Z,95681.78
2022-11-23T19:38:49.030Z,95689.69
2022-11-23T19:41:16.483Z,95694.03
2022-11-23T19:43:43.160Z,95687.28
2022-11-23T19:46:12.372Z,95663.06
2022-11-23T19:48:39.560Z,95705.31
2022-11-23T19:51:10.246Z,95694.81
2022-11-23T19:53:38.337Z,95681.31
2022-11-23T19:56:09.832Z,95697.59
2022-11-23T19:58:36.449Z,95717.84
2022-11-23T20:01:05.474Z,95721.78
2022-11-23T20:03:35.768Z,95705.94
2022-11-23T20:06:04.980Z,95710.41
2022-11-23T20:08:31.448Z,95719.75
2022-11-23T20:10:57.910Z,95744.31
2022-11-23T20:13:24.464Z,95755.06
2022-11-23T20:15:51.003Z,95744.97
2022-11-23T20:18:18.477Z,95725.72
2022-11-23T20:20:47.441Z,95754.13
2022-11-23T20:23:14.844Z,95737.25
2022-11-23T20:25:42.410Z,95772.22
2022-11-23T20:28:15.424Z,95772.22
2022-11-23T20:30:43.052Z,95769.03
2022-11-23T20:33:10.196Z,95761.09
2022-11-23T20:35:36.787Z,95786.47
2022-11-23T20:38:03.628Z,95768.44
2022-11-23T20:40:30.146Z,95774.97
2022-11-23T20:42:59.529Z,95792.78
2022-11-23T20:45:26.951Z,95798.31
2022-11-23T20:47:54.708Z,95800.06
2022-11-23T20:50:27.001Z,95802.25
2022-11-23T20:52:54.837Z,95808.13
2022-11-23T20:55:24.738Z,95817.09
2022-11-23T20:57:52.218Z,95773.16
2022-11-23T21:00:21.352Z,95803.09
2022-11-23T21:02:52.531Z,95803.25
2022-11-23T21:05:19.762Z,95792.16
2022-11-23T21:07:47.428Z,95796.75
2022-11-23T21:10:33.847Z,95788.56
2022-11-23T21:13:19.182Z,95809.59
2022-11-23T21:15:46.115Z,95807.84
2022-11-23T21:18:13.175Z,95799.13
2022-11-23T21:20:40.895Z,95792.00
2022-11-23T21:23:07.393Z,95770.94
2022-11-23T21:25:34.289Z,95826.16
2022-11-23T21:28:03.156Z,95817.44
2022-11-23T21:30:30.669Z,95696.09
2022-11-23T21:32:57.644Z,95788.22
2022-11-23T21:35:24.461Z,95809.78
2022-11-23T21:37:51.192Z,95829.75
2022-11-23T21:40:17.799Z,95764.31
2022-11-23T21:42:44.694Z,95800.53
2022-11-23T21:45:11.274Z,95825.88
2022-11-23T21:47:37.746Z,95806.44
2022-11-23T21:50:04.384Z,95833.44
2022-11-23T21:52:30.859Z,95806.16
2022-11-23T21:54:57.403Z,95828.94
2022-11-23T21:57:23.847Z,95836.09
2022-11-23T21:59:50.234Z,95839.50
2022-11-23T22:02:16.707Z,95830.16
2022-11-23T22:04:43.159Z,95838.47
2022-11-23T22:07:09.704Z,95836.31
2022-11-23T22:09:38.012Z,95816.44
2022-11-23T22:12:04.622Z,95817.84
2022-11-23T22:14:31.693Z,95844.47
2022-11-23T22:16:58.462Z,95802.56
2022-11-23T22:19:24.823Z,95861.72
2022-11-23T22:21:51.308Z,95801.56
2022-11-23T22:24:19.571Z,95848.00
2022-11-23T22:26:47.515Z,95853.69
2022-11-23T22:29:14.813Z,95832.56
2022-11-23T22:31:41.567Z,95826.34
2022-11-23T22:34:11.027Z,95823.31
2022-11-23T22:36:37.568Z,95845.72
2022-11-23T22:39:06.112Z,95866.91
2022-11-23T22:41:36.350Z,95835.16
2022-11-23T22:44:03.878Z,95874.50
2022-11-23T22:46:30.401Z,95871.94
2022-11-23T22:48:59.824Z,95832.56
2022-11-23T22:51:28.411Z,95879.59
2022-11-23T22:53:56.790Z,95828.59
2022-11-23T22:56:23.926Z,95862.50
2022-11-23T22:58:50.651Z,95881.19
2022-11-23T23:18:05.956Z,95910.03
2022-11-23T23:20:34.435Z,95906.84
2022-11-23T23:23:01.080Z,95913.78
2022-11-23T23:25:27.751Z,95916.53
2022-11-23T23:27:54.322Z,95919.19
2022-11-23T23:30:20.856Z,95911.84
2022-11-23T23:32:47.680Z,95901.31
2022-11-23T23:35:14.224Z,95926.69
2022-11-23T23:37:40.758Z,95936.66
2022-11-23T23:40:07.725Z,95929.06
2022-11-23T23:42:34.287Z,95935.78
2022-11-23T23:45:02.307Z,95937.16
2022-11-23T23:47:28.939Z,95947.19
2022-11-23T23:49:55.445Z,95945.41
2022-11-23T23:52:21.882Z,95953.56
2022-11-23T23:54:48.395Z,95958.47
2022-11-23T23:57:14.771Z,95961.25
2022-11-23T23:59:41.260Z,95934.88
